Nicholas L — WDE7436 — position and weather

sailwx.info

Track history (hours):
 
Tides and Currents Weather Stations Pressure Air Temp Water Temp Dewpoint Dewpoint Depression Visibility Wind Speed Wind Dir Waves Ship Positions

Nicholas L

Owner: SO. CAL. SHIP SERVICES, TERMINAL ISLAND, CA. More information available from US FCC via Universal Licensing System and Coast Guard Vessel Documentation Center.

Last reported at 2017-Nov-18 01:00 UTC. Time now 2017-Nov-18 10:09 UTC.
Position N 33°38' W 118°11'.

Length 31 m; draft 2.4 m.

Type: Port tender. MMSI: 367393270.

Date/timePositionNaut miles runAvg speedWind from/ knotsBaromVisibWave heightAir tempDewpointWater temp
2017-Nov-18 01:00N 33°38' W 118°11'4 0.5
2017-Nov-17 16:57N 33°35' W 118°08'5 5.3
2017-Nov-17 16:00N 33°39' W 118°12'5 2.4
2017-Nov-17 13:51N 33°35' W 118°08'1 0.1
2017-Nov-17 02:03N 33°36' W 118°08'116.3
2017-Nov-17 01:59N 33°35' W 118°08'1 2.8
2017-Nov-17 01:30N 33°34' W 118°07'5 1.4
2017-Nov-16 21:59N 33°38' W 118°11'5 9.8
2017-Nov-16 21:28N 33°34' W 118°07'612.8
2017-Nov-16 20:59N 33°39' W 118°12'3 0.7
2017-Nov-16 16:46N 33°37' W 118°10'3 7.1
2017-Nov-16 16:22N 33°34' W 118°07'11 7.1
2017-Nov-16 14:47N 33°43' W 118°16'416.1
2017-Nov-16 14:30N 33°40' W 118°12'715.0
2017-Nov-16 14:01N 33°34' W 118°07'510.7
2017-Nov-16 13:30N 33°38' W 118°11'5 0.4
2017-Nov-16 02:32N 33°42' W 118°14'616.5
2017-Nov-16 02:09N 33°37' W 118°09'214.6
2017-Nov-16 02:00N 33°35' W 118°08'0 0.0
2017-Nov-16 01:30N 33°35' W 118°08'8 2.2
2017-Nov-15 22:04N 33°41' W 118°13'316.5
2017-Nov-15 21:54N 33°39' W 118°11'513.7
2017-Nov-15 21:30N 33°35' W 118°07'711.9
2017-Nov-15 20:55N 33°40' W 118°13'4 1.2
2017-Nov-15 17:12N 33°43' W 118°16'316.4
2017-Nov-15 17:01N 33°41' W 118°13'916.0
2017-Nov-15 16:27N 33°34' W 118°07'612.0
2017-Nov-15 16:00N 33°38' W 118°11'2 1.7
2017-Nov-15 14:33N 33°40' W 118°13'117.1
2017-Nov-15 14:30N 33°40' W 118°12'714.3
2017-Nov-15 14:00N 33°34' W 118°07'611.5
2017-Nov-15 13:31N 33°38' W 118°11'712.9
2017-Nov-15 12:57N 33°44' W 118°16'9 0.6
2017-Nov-14 22:12N 33°37' W 118°10'210.2
2017-Nov-14 21:58N 33°35' W 118°08'1 2.7
2017-Nov-14 21:30N 33°34' W 118°07'11 2.7
2017-Nov-14 17:24N 33°43' W 118°15'716.7
2017-Nov-14 17:00N 33°37' W 118°10'3 5.3
2017-Nov-14 16:25N 33°35' W 118°08'4 9.8
2017-Nov-14 16:00N 33°38' W 118°11'8 9.7
2017-Nov-14 15:14N 33°44' W 118°16'1210.6
2017-Nov-14 14:08N 33°35' W 118°08'1 7.8
2017-Nov-14 13:58N 33°34' W 118°07'8 0.7
2017-Nov-14 02:19N 33°40' W 118°12'516.7
2017-Nov-14 02:00N 33°36' W 118°08'2 4.9
2017-Nov-14 01:30N 33°34' W 118°07'812.8
2017-Nov-14 00:51N 33°40' W 118°13'4 8.5
2017-Nov-14 00:19N 33°44' W 118°16'0 0.0
2017-Nov-13 23:58N 33°44' W 118°16'0 0.0
2017-Nov-13 23:30N 33°44' W 118°16'0 0.0
2017-Nov-13 23:00N 33°44' W 118°16'5 7.8
2017-Nov-13 22:24N 33°40' W 118°13'716.8
2017-Nov-13 22:00N 33°35' W 118°08'5 0.2
2017-Nov-12 21:59N 33°39' W 118°12'612.2
2017-Nov-12 21:30N 33°34' W 118°07'5 9.4
2017-Nov-12 21:00N 33°38' W 118°11'2 0.5
2017-Nov-12 17:38N 33°37' W 118°10'4 2.6
2017-Nov-12 16:12N 33°34' W 118°07'0 1.0
2017-Nov-12 15:59N 33°34' W 118°07'0 0.2
2017-Nov-12 14:10N 33°34' W 118°07'0 1.7
2017-Nov-12 13:53N 33°34' W 118°07'613.1
2017-Nov-12 13:27N 33°39' W 118°11'5 0.4
2017-Nov-12 01:46N 33°35' W 118°08'0 0.0
2017-Nov-12 01:17N 33°35' W 118°08'0 0.0
2017-Nov-11 23:20N 33°35' W 118°08'5 2.7
2017-Nov-11 21:37N 33°39' W 118°11'2 0.3
2017-Nov-11 15:54N 33°40' W 118°13'2 0.7
2017-Nov-11 13:34N 33°38' W 118°11'116.6
2017-Nov-11 13:31N 33°39' W 118°12'6 0.3
2017-Nov-10 16:45N 33°35' W 118°08'5 1.5
2017-Nov-10 13:32N 33°39' W 118°11'116.3
2017-Nov-10 13:30N 33°39' W 118°12'1 0.1
2017-Nov-09 21:08N 33°38' W 118°10'1 0.2
2017-Nov-09 15:57N 33°39' W 118°12'0 0.1
2017-Nov-09 13:25N 33°39' W 118°12'5 0.3
2017-Nov-08 22:20N 33°35' W 118°08'0 0.0
2017-Nov-08 16:16N 33°35' W 118°08'4 1.8
2017-Nov-08 14:17N 33°38' W 118°10'4 8.6
2017-Nov-08 13:51N 33°35' W 118°08'412.7
2017-Nov-08 13:30N 33°38' W 118°11'3 0.3
2017-Nov-08 02:08N 33°36' W 118°09'  
Track history (hours):
 
Tides and Currents Weather Stations Pressure Air Temp Water Temp Dewpoint Dewpoint Depression Visibility Wind Speed Wind Dir Waves Ship Positions

Nicholas L

Owner: SO. CAL. SHIP SERVICES, TERMINAL ISLAND, CA. More information available from US FCC via Universal Licensing System and Coast Guard Vessel Documentation Center.

Last reported at 2017-Nov-18 01:00 UTC. Time now 2017-Nov-18 10:09 UTC.
Position N 33°38' W 118°11'.

Length 31 m; draft 2.4 m.

Type: Port tender. MMSI: 367393270.

Date/timePositionNaut miles runAvg speedWind from/ knotsBaromVisibWave heightAir tempDewpointWater temp
2017-Nov-18 01:00N 33°38' W 118°11'4 0.5
2017-Nov-17 16:57N 33°35' W 118°08'5 5.3
2017-Nov-17 16:00N 33°39' W 118°12'5 2.4
2017-Nov-17 13:51N 33°35' W 118°08'1 0.1
2017-Nov-17 02:03N 33°36' W 118°08'116.3
2017-Nov-17 01:59N 33°35' W 118°08'1 2.8
2017-Nov-17 01:30N 33°34' W 118°07'5 1.4
2017-Nov-16 21:59N 33°38' W 118°11'5 9.8
2017-Nov-16 21:28N 33°34' W 118°07'612.8
2017-Nov-16 20:59N 33°39' W 118°12'3 0.7
2017-Nov-16 16:46N 33°37' W 118°10'3 7.1
2017-Nov-16 16:22N 33°34' W 118°07'11 7.1
2017-Nov-16 14:47N 33°43' W 118°16'416.1
2017-Nov-16 14:30N 33°40' W 118°12'715.0
2017-Nov-16 14:01N 33°34' W 118°07'510.7
2017-Nov-16 13:30N 33°38' W 118°11'5 0.4
2017-Nov-16 02:32N 33°42' W 118°14'616.5
2017-Nov-16 02:09N 33°37' W 118°09'214.6
2017-Nov-16 02:00N 33°35' W 118°08'0 0.0
2017-Nov-16 01:30N 33°35' W 118°08'8 2.2
2017-Nov-15 22:04N 33°41' W 118°13'316.5
2017-Nov-15 21:54N 33°39' W 118°11'513.7
2017-Nov-15 21:30N 33°35' W 118°07'711.9
2017-Nov-15 20:55N 33°40' W 118°13'4 1.2
2017-Nov-15 17:12N 33°43' W 118°16'316.4
2017-Nov-15 17:01N 33°41' W 118°13'916.0
2017-Nov-15 16:27N 33°34' W 118°07'612.0
2017-Nov-15 16:00N 33°38' W 118°11'2 1.7
2017-Nov-15 14:33N 33°40' W 118°13'117.1
2017-Nov-15 14:30N 33°40' W 118°12'714.3
2017-Nov-15 14:00N 33°34' W 118°07'611.5
2017-Nov-15 13:31N 33°38' W 118°11'712.9
2017-Nov-15 12:57N 33°44' W 118°16'9 0.6
2017-Nov-14 22:12N 33°37' W 118°10'210.2
2017-Nov-14 21:58N 33°35' W 118°08'1 2.7
2017-Nov-14 21:30N 33°34' W 118°07'11 2.7
2017-Nov-14 17:24N 33°43' W 118°15'716.7
2017-Nov-14 17:00N 33°37' W 118°10'3 5.3
2017-Nov-14 16:25N 33°35' W 118°08'4 9.8
2017-Nov-14 16:00N 33°38' W 118°11'8 9.7
2017-Nov-14 15:14N 33°44' W 118°16'1210.6
2017-Nov-14 14:08N 33°35' W 118°08'1 7.8
2017-Nov-14 13:58N 33°34' W 118°07'8 0.7
2017-Nov-14 02:19N 33°40' W 118°12'516.7
2017-Nov-14 02:00N 33°36' W 118°08'2 4.9
2017-Nov-14 01:30N 33°34' W 118°07'812.8
2017-Nov-14 00:51N 33°40' W 118°13'4 8.5
2017-Nov-14 00:19N 33°44' W 118°16'0 0.0
2017-Nov-13 23:58N 33°44' W 118°16'0 0.0
2017-Nov-13 23:30N 33°44' W 118°16'0 0.0
2017-Nov-13 23:00N 33°44' W 118°16'5 7.8
2017-Nov-13 22:24N 33°40' W 118°13'716.8
2017-Nov-13 22:00N 33°35' W 118°08'5 0.2
2017-Nov-12 21:59N 33°39' W 118°12'612.2
2017-Nov-12 21:30N 33°34' W 118°07'5 9.4
2017-Nov-12 21:00N 33°38' W 118°11'2 0.5
2017-Nov-12 17:38N 33°37' W 118°10'4 2.6
2017-Nov-12 16:12N 33°34' W 118°07'0 1.0
2017-Nov-12 15:59N 33°34' W 118°07'0 0.2
2017-Nov-12 14:10N 33°34' W 118°07'0 1.7
2017-Nov-12 13:53N 33°34' W 118°07'613.1
2017-Nov-12 13:27N 33°39' W 118°11'5 0.4
2017-Nov-12 01:46N 33°35' W 118°08'0 0.0
2017-Nov-12 01:17N 33°35' W 118°08'0 0.0
2017-Nov-11 23:20N 33°35' W 118°08'5 2.7
2017-Nov-11 21:37N 33°39' W 118°11'2 0.3
2017-Nov-11 15:54N 33°40' W 118°13'2 0.7
2017-Nov-11 13:34N 33°38' W 118°11'116.6
2017-Nov-11 13:31N 33°39' W 118°12'6 0.3
2017-Nov-10 16:45N 33°35' W 118°08'5 1.5
2017-Nov-10 13:32N 33°39' W 118°11'116.3
2017-Nov-10 13:30N 33°39' W 118°12'1 0.1
2017-Nov-09 21:08N 33°38' W 118°10'1 0.2
2017-Nov-09 15:57N 33°39' W 118°12'0 0.1
2017-Nov-09 13:25N 33°39' W 118°12'5 0.3
2017-Nov-08 22:20N 33°35' W 118°08'0 0.0
2017-Nov-08 16:16N 33°35' W 118°08'4 1.8
2017-Nov-08 14:17N 33°38' W 118°10'4 8.6
2017-Nov-08 13:51N 33°35' W 118°08'412.7
2017-Nov-08 13:30N 33°38' W 118°11'3 0.3
2017-Nov-08 02:08N 33°36' W 118°09'  

Dump ship's entire track history